This is the latest recevied weather packets stored in our database for station/object K4GSL. If no packets are shown the sender has not sent any weather packets the latest 10 day(s).
| Time | Temp. | Humidity | Pressure | Rain* | Wind** | Luminosity | Snow |
|---|---|---|---|---|---|---|---|
| 1777840512 | 27.78° C | 52% | 1013.5 hPa | 0 mm | - | 711 W/m² | - |
| 1777840209 | 28.89° C | 51% | 1013.5 hPa | 0 mm | - | 722 W/m² | - |
| 1777839906 | 28.33° C | 49% | 1013.7 hPa | 0 mm | - | 716 W/m² | - |
| 1777839604 | 28.33° C | 50% | 1013.8 hPa | 0 mm | - | 696 W/m² | - |
| 1777839302 | 27.78° C | 50% | 1013.7 hPa | 0 mm | - | 699 W/m² | - |
| 1777838999 | 27.78° C | 50% | 1013.8 hPa | 0 mm | - | 723 W/m² | - |
| 1777838695 | 27.78° C | 50% | 1013.9 hPa | 0 mm | - | 729 W/m² | - |
| 1777838392 | 27.22° C | 51% | 1014.1 hPa | 0 mm | - | 693 W/m² | - |
| 1777838089 | 27.22° C | 51% | 1014.1 hPa | 0 mm | - | 689 W/m² | - |
| 1777837785 | 27.78° C | 52% | 1014.2 hPa | 0 mm | - | 688 W/m² | - |
| 1777837483 | 26.67° C | 54% | 1014 hPa | 0 mm | - | 708 W/m² | - |
| 1777837178 | 26.67° C | 54% | 1014.4 hPa | 0 mm | - | 701 W/m² | - |
| 1777836874 | 26.11° C | 56% | 1014.1 hPa | 0 mm | - | 667 W/m² | - |
| 1777836569 | 26.67° C | 55% | 1014.4 hPa | 0 mm | - | 599 W/m² | - |
| 1777836266 | 26.11° C | 57% | 1014.4 hPa | 0 mm | - | 444 W/m² | - |
| 1777835962 | 26.11° C | 55% | 1014.5 hPa | 0 mm | - | 383 W/m² | - |
| 1777835660 | 26.11° C | 53% | 1014.7 hPa | 0 mm | - | 469 W/m² | - |
| 1777835356 | 25.56° C | 57% | 1014.7 hPa | 0 mm | - | 626 W/m² | - |
| 1777835053 | 25° C | 57% | 1014.6 hPa | 0 mm | - | 672 W/m² | - |
| 1777834750 | 24.44° C | 56% | 1014.6 hPa | 0 mm | - | 638 W/m² | - |
| 1777834447 | 25° C | 53% | 1014.9 hPa | 0 mm | - | 653 W/m² | - |
| 1777834145 | 25° C | 57% | 1014.8 hPa | 0 mm | - | 672 W/m² | - |
| 1777833842 | 24.44° C | 59% | 1015 hPa | 0 mm | - | 680 W/m² | - |
| 1777833538 | 23.89° C | 62% | 1014.8 hPa | 0 mm | - | 666 W/m² | - |
| 1777833235 | 23.89° C | 62% | 1014.8 hPa | 0 mm | - | 626 W/m² | - |
* Rain latest hour (hover to see other rain measurements)
** Current wind speed in m/s (hover to see current wind gust speed)